EK734 / A6-EPF 7700 Squawk Report (12th of October, 2019)

Aircraft B77W Reg No. A6-EPF Age 4 years old
Model 777 Jet engines 2 First flight 29-10-15
Registered 21-11-15 Rollout N/A Delivered 21-11-15
Construction No. 42325 Line No. 1352 Series 31H(ER)
ADSHEX 8963D5 Airline name Emirates Airlines Owner N/A
Airfield based Dubai~ ~A6 First tracked 2017-07-13 04:55:00

Flight history for A6-EPF

Route Flight No Date Playback
O. R. Tambo International Airport (JNB) - Dubai International (DXB) EK762 2019-11-21 19:10:00
Dubai International (DXB) - O. R. Tambo International Airport (JNB) EK761 2019-11-21 08:40:00
Bandaranaike Intl Colombo (CMB) - Ibrahim Nasir Intl (MLE) - Dubai International (DXB) EK653 2019-11-21 00:46:00
Dubai International (DXB) - Ibrahim Nasir Intl (MLE) - Bandaranaike Intl Colombo (CMB) EK652 2019-11-20 09:38:00
Cairo International (CAI) - Dubai International (DXB) EK926 2019-11-20 06:04:00
Dubai International (DXB) - Cairo International (CAI) EK925 2019-11-19 23:06:00
Chhatrapati Shivaji Intl (BOM) - Dubai International (DXB) EK507 2019-11-19 17:05:00
Dubai International (DXB) - Chhatrapati Shivaji Intl (BOM) EK506 2019-11-19 10:24:00
King Khaled Intl (RUH) - Dubai International (DXB) EK816 2019-11-19 05:39:00
Dubai International (DXB) - King Khaled Intl (RUH) EK815 2019-11-19 00:58:00
Imam Khomeini (IKA) - Dubai International (DXB) EK972 2019-11-18 21:35:00
Dubai International (DXB) - Imam Khomeini (IKA) EK971 2019-11-18 08:43:00
Bahrain Intl (BAH) - Dubai International (DXB) EK836 2019-11-18 04:06:00
Dubai International (DXB) - Bahrain Intl (BAH) EK835 2019-11-18 00:57:00
Chennai Intl (MAA) - Dubai International (DXB) EK547 2019-11-17 22:29:00
Dubai International (DXB) - Chennai Intl (MAA) EK546 2019-11-17 16:55:00
Bahrain Intl (BAH) - Dubai International (DXB) EK838 2019-11-17 11:05:00
Dubai International (DXB) - Bahrain Intl (BAH) EK837 2019-11-17 07:31:00
Pulkovo (LED) - Dubai International (DXB) EK176 2019-11-17 04:43:00
Dubai International (DXB) - Pulkovo (LED) EK175 2019-11-16 19:15:00
Time Lat Lon Altitude Heading Speed Vertical Rate
2019-10-12 20:03:25 GMT 25.241123 55.376690 0 210 9 0
2019-10-12 20:03:14 GMT 25.241543 55.376965 0 210 12 0
2019-10-12 20:03:00 GMT 25.242302 55.377476 0 210 15 0
2019-10-12 20:02:53 GMT 25.242691 55.377731 0 210 14 0
2019-10-12 20:02:39 GMT 25.243486 55.378296 0 213 16 0
2019-10-12 20:02:30 GMT 25.243973 55.378658 0 213 16 0
2019-10-12 20:02:19 GMT 25.244579 55.379112 0 216 13 0
2019-10-12 20:02:10 GMT 25.244999 55.379436 0 213 13 0
2019-10-12 20:02:00 GMT 25.245453 55.379787 0 210 10 0
2019-10-12 20:01:49 GMT 25.245861 55.380047 0 163 10 0
2019-10-12 20:01:39 GMT 25.246313 55.379799 0 120 15 0
2019-10-12 20:01:28 GMT 25.246780 55.378944 0 120 21 0
2019-10-12 20:01:17 GMT 25.247292 55.378025 0 120 20 0
2019-10-12 20:01:07 GMT 25.247828 55.377155 0 137 20 0
2019-10-12 20:00:56 GMT 25.248585 55.376484 0 149 21 0
2019-10-12 20:00:45 GMT 25.249512 55.375950 0 151 23 0
2019-10-12 20:00:35 GMT 25.250610 55.375187 0 137 31 0
2019-10-12 20:00:20 GMT 25.252098 55.373013 0 120 53 0
2019-10-12 20:00:07 GMT 25.254044 55.369492 0 120 70 0
2019-10-12 20:00:01 GMT 25.254948 55.367851 0 120 76 0
2019-10-12 19:59:52 GMT 25.256767 55.364571 0 120 94 0
2019-10-12 19:59:41 GMT 25.259399 55.359802 75 121 123 -64
2019-10-12 19:59:22 GMT 25.265762 55.348293 200 121 147 -256
2019-10-12 19:59:18 GMT 25.267365 55.345409 250 121 147 -640
2019-10-12 19:59:09 GMT 25.270510 55.339741 350 121 145 -576
2019-10-12 19:58:58 GMT 25.274414 55.332691 475 121 148 -768
2019-10-12 19:58:47 GMT 25.278305 55.325672 625 121 144 -704
2019-10-12 19:58:35 GMT 25.282288 55.318401 750 121 144 -704
2019-10-12 19:58:25 GMT 25.285872 55.311913 875 121 145 -704
2019-10-12 19:58:10 GMT 25.291086 55.302586 1,050 121 144 -704
2019-10-12 19:58:03 GMT 25.293503 55.298206 1,150 121 145 -768
2019-10-12 19:57:52 GMT 25.297417 55.291134 1,275 121 147 -704
2019-10-12 19:57:41 GMT 25.301331 55.284069 1,400 121 152 -704
2019-10-12 19:57:30 GMT 25.305542 55.276440 1,550 121 161 -768
2019-10-12 19:57:18 GMT 25.310171 55.268070 1,700 121 165 -768
2019-10-12 19:57:08 GMT 25.314548 55.260143 1,850 121 165 -832
2019-10-12 19:56:56 GMT 25.319229 55.251770 2,025 121 166 -896
2019-10-12 19:56:45 GMT 25.323624 55.243732 2,125 121 166 0
2019-10-12 19:56:34 GMT 25.327955 55.235943 2,125 121 166 0
2019-10-12 19:56:23 GMT 25.332184 55.228168 2,100 120 171 0
2019-10-12 19:56:12 GMT 25.336853 55.219677 2,100 121 184 -64
2019-10-12 19:56:08 GMT 25.339737 55.214539 2,100 121 191 -64
2019-10-12 19:56:03 GMT 25.341410 55.211586 2,100 121 195 0
2019-10-12 19:55:44 GMT 25.350161 55.195572 2,125 117 199 0
2019-10-12 19:55:41 GMT 25.355667 55.182751 2,125 100 198 64
2019-10-12 19:55:30 GMT 25.355667 55.182751 2,125 100 198 64
2019-10-12 19:55:19 GMT 25.355841 55.171577 2,125 82 197 0
2019-10-12 19:55:09 GMT 25.354584 55.161629 2,125 82 197 0
2019-10-12 19:54:58 GMT 25.353188 55.150692 2,125 81 197 64
2019-10-12 19:54:47 GMT 25.351730 55.139515 2,100 81 197 128
2019-10-12 19:54:30 GMT 25.349556 55.122814 2,100 81 197 64
2019-10-12 19:54:25 GMT 25.348904 55.117683 2,100 81 197 -512
2019-10-12 19:54:13 GMT 25.347227 55.104729 2,200 81 197 -640
2019-10-12 19:54:01 GMT 25.345642 55.092724 2,350 81 200 -768
2019-10-12 19:53:54 GMT 25.344807 55.086433 2,450 84 203 -832
2019-10-12 19:53:47 GMT 25.343765 55.078381 2,575 83 203 -896
2019-10-12 19:53:42 GMT 25.343224 55.073273 2,650 90 209 -896
2019-10-12 19:53:38 GMT 25.342993 55.070057 2,675 86 205 -896
2019-10-12 19:53:33 GMT 25.342758 55.064190 2,775 91 209 -832
2019-10-12 19:53:29 GMT 25.342850 55.059460 2,825 91 211 -832
2019-10-12 19:53:21 GMT 25.343170 55.050709 2,925 92 219 -832
2019-10-12 19:53:17 GMT 25.343262 55.047504 2,975 91 221 -960
2019-10-12 19:53:11 GMT 25.343456 55.040623 3,125 90 223 -960
2019-10-12 19:53:07 GMT 25.343536 55.035858 3,150 90 224 -960
2019-10-12 19:52:54 GMT 25.342993 55.021191 3,250 83 225 -896
2019-10-12 19:52:49 GMT 25.341339 55.013783 3,450 65 227 -832
2019-10-12 19:52:36 GMT 25.336121 55.002136 3,575 61 228 -576
2019-10-12 19:52:28 GMT 25.326559 54.982117 3,675 62 249 -896
2019-10-12 19:52:18 GMT 25.326559 54.982117 3,825 62 248 -832
2019-10-12 19:52:08 GMT 25.321018 54.970509 3,950 61 252 -896
2019-10-12 19:51:56 GMT 25.314503 54.957760 4,100 57 257 -384
2019-10-12 19:51:49 GMT 25.308636 54.948845 4,100 51 261 0
2019-10-12 19:51:32 GMT 25.293457 54.935047 4,100 35 270 64
2019-10-12 19:51:24 GMT 25.285263 54.928486 4,100 35 270 0
2019-10-12 19:51:12 GMT 25.271576 54.917603 4,100 35 272 -640
2019-10-12 19:51:02 GMT 25.261805 54.909824 4,200 35 272 -640
2019-10-12 19:50:52 GMT 25.251423 54.901585 4,325 35 273 -832
2019-10-12 19:50:41 GMT 25.240677 54.893139 4,475 35 274 -896
2019-10-12 19:50:29 GMT 25.228958 54.883930 4,700 35 276 -1024
2019-10-12 19:50:19 GMT 25.217926 54.875336 4,850 35 277 -1152
2019-10-12 19:50:09 GMT 25.206161 54.866230 5,050 35 281 -1152
2019-10-12 19:49:58 GMT 25.194490 54.857170 5,300 35 282 -1152
2019-10-12 19:49:45 GMT 25.182175 54.847668 5,500 35 283 -1152
2019-10-12 19:49:34 GMT 25.170004 54.838257 5,725 35 284 -1088
2019-10-12 19:49:25 GMT 25.158966 54.829712 5,900 35 290 -1088
2019-10-12 19:49:13 GMT 25.146774 54.820328 6,075 34 298 -1088
2019-10-12 19:49:02 GMT 25.133833 54.810326 6,425 35 327 -1152
2019-10-12 19:48:53 GMT 25.122753 54.801773 6,425 35 327 -1152
2019-10-12 19:48:50 GMT 25.105087 54.788006 6,475 35 338 -1088
2019-10-12 19:48:39 GMT 25.105087 54.788006 6,650 35 341 -1088
2019-10-12 19:48:30 GMT 25.092270 54.778034 6,875 35 347 -1088
2019-10-12 19:48:17 GMT 25.076853 54.766018 7,100 35 352 -1216
2019-10-12 19:48:07 GMT 25.063385 54.755505 7,325 35 357 -1408
2019-10-12 19:47:56 GMT 25.047991 54.743423 7,625 35 361 -1664
2019-10-12 19:47:45 GMT 25.033813 54.732311 8,000 35 364 -1792
2019-10-12 19:47:34 GMT 25.016281 54.718578 8,300 35 366 -1792
2019-10-12 19:47:21 GMT 25.000460 54.706005 8,650 35 365 -1728
2019-10-12 19:47:16 GMT 24.992661 54.699810 8,800 35 364 -1728
2019-10-12 19:47:12 GMT 24.988543 54.696522 8,900 36 363 -1664
2019-10-12 19:47:07 GMT 24.981421 54.690872 9,025 36 363 -1728
2019-10-12 19:47:02 GMT 24.974487 54.685364 9,175 35 363 -1664
2019-10-12 19:46:58 GMT 24.967392 54.679668 9,275 35 362 -1664
2019-10-12 19:46:51 GMT 24.959215 54.673256 9,475 36 364 -1664
2019-10-12 19:46:44 GMT 24.949722 54.665424 9,650 38 367 -1472
2019-10-12 19:46:35 GMT 24.938004 54.654999 9,875 40 368 -1536
2019-10-12 19:46:24 GMT 24.923538 54.640656 10,175 45 370 -1536
2019-10-12 19:46:16 GMT 24.913734 54.629932 10,375 47 370 -1536
2019-10-12 19:46:13 GMT 24.910263 54.625805 10,450 47 370 -1536
2019-10-12 19:46:05 GMT 24.900885 54.614540 10,650 47 375 -1536
2019-10-12 19:45:57 GMT 24.891621 54.603397 10,850 47 375 -1536
2019-10-12 19:45:54 GMT 24.888641 54.599770 10,925 47 375 -1536
2019-10-12 19:45:51 GMT 24.883301 54.593403 11,050 47 378 -1664
2019-10-12 19:45:40 GMT 24.870575 54.577991 11,325 47 378 -1728
2019-10-12 19:45:34 GMT 24.863663 54.569702 11,500 47 380 -1792
2019-10-12 19:45:25 GMT 24.853958 54.557953 11,750 47 380 -1792
2019-10-12 19:45:22 GMT 24.850981 54.554321 11,825 47 380 -1792
2019-10-12 19:45:16 GMT 24.842148 54.543659 12,050 47 382 -1792
2019-10-12 19:45:12 GMT 24.838943 54.539795 12,375 47 383 -1792
2019-10-12 19:45:05 GMT 24.830963 54.530174 12,375 47 385 -1792
2019-10-12 19:45:02 GMT 24.826168 54.524422 12,575 47 386 -1792
2019-10-12 19:44:55 GMT 24.817465 54.514004 12,675 47 386 -1792
2019-10-12 19:44:43 GMT 24.804062 54.497986 13,000 47 387 -1792
2019-10-12 19:44:40 GMT 24.799164 54.492138 13,125 47 388 -1792
2019-10-12 19:44:33 GMT 24.789625 54.480736 13,350 47 390 -1856
2019-10-12 19:44:21 GMT 24.774948 54.463093 13,725 47 390 -1856
2019-10-12 19:44:09 GMT 24.758057 54.442749 14,175 47 391 -1984
2019-10-12 19:44:00 GMT 24.749683 54.432693 14,400 47 393 -1984
2019-10-12 19:43:49 GMT 24.737301 54.417873 14,725 47 396 -2048
2019-10-12 19:43:46 GMT 24.733658 54.413555 14,825 47 397 -2048
2019-10-12 19:43:38 GMT 24.723770 54.401703 15,100 47 397 -2112
2019-10-12 19:43:35 GMT 24.720474 54.397686 15,175 47 397 -2048
2019-10-12 19:43:28 GMT 24.710953 54.386242 15,425 47 400 -1920
2019-10-12 19:43:24 GMT 24.706575 54.380978 15,525 47 401 -1728
2019-10-12 19:43:17 GMT 24.697220 54.369781 15,750 47 401 -1472
2019-10-12 19:43:13 GMT 24.692564 54.364185 15,825 47 398 -704
2019-10-12 19:43:07 GMT 24.683762 54.353687 15,950 47 398 -576
2019-10-12 19:43:02 GMT 24.678818 54.347736 15,975 47 396 64
2019-10-12 19:42:54 GMT 24.669388 54.336445 15,975 47 397 0
2019-10-12 19:42:47 GMT 24.657185 54.321743 16,025 47 397 -512
2019-10-12 19:42:41 GMT 24.653503 54.317272 16,050 47 397 -768
2019-10-12 19:42:35 GMT 24.644382 54.306355 16,200 47 399 -1408
2019-10-12 19:42:31 GMT 24.640549 54.301758 16,275 47 399 -1664
2019-10-12 19:42:24 GMT 24.630615 54.289753 16,500 47 402 -1792
2019-10-12 19:42:19 GMT 24.625580 54.283752 16,625 47 403 -1792
2019-10-12 19:42:12 GMT 24.617010 54.273445 16,825 47 406 -1792
2019-10-12 19:42:09 GMT 24.613146 54.268833 16,900 47 406 -1792
2019-10-12 19:42:03 GMT 24.603230 54.257069 17,125 47 410 -1792
2019-10-12 19:41:56 GMT 24.595642 54.248001 17,300 47 411 -1792
2019-10-12 19:41:52 GMT 24.590012 54.241333 17,425 47 414 -1792
2019-10-12 19:41:41 GMT 24.575996 54.224579 17,775 47 416 -1792
2019-10-12 19:41:30 GMT 24.562405 54.208359 18,075 47 419 -1792
2019-10-12 19:41:19 GMT 24.547693 54.190739 18,400 47 423 -1792
2019-10-12 19:41:08 GMT 24.533728 54.174103 18,725 47 426 -1792
2019-10-12 19:40:58 GMT 24.518967 54.156597 19,050 47 428 -1792
2019-10-12 19:40:50 GMT 24.508163 54.143726 19,250 47 431 -1792
2019-10-12 19:40:47 GMT 24.504679 54.139587 19,675 47 436 -1856
2019-10-12 19:40:43 GMT 24.499790 54.133785 19,475 47 434 -1856
2019-10-12 19:40:37 GMT 24.489922 54.122021 19,700 47 435 -1856
2019-10-12 19:40:29 GMT 24.479633 54.109737 19,925 47 438 -1856
2019-10-12 19:40:26 GMT 24.465820 54.093273 20,225 47 440 -1920
2019-10-12 19:40:18 GMT 24.465820 54.093273 20,250 47 440 -1920
2019-10-12 19:40:15 GMT 24.460922 54.087372 20,375 47 440 -1984
2019-10-12 19:40:08 GMT 24.450485 54.074909 20,625 47 442 -1984
2019-10-12 19:40:05 GMT 24.446163 54.069782 20,725 47 443 -2048
2019-10-12 19:39:59 GMT 24.439039 54.061283 20,900 47 445 -2048
2019-10-12 19:39:54 GMT 24.431267 54.052059 21,075 47 446 -2048
2019-10-12 19:39:48 GMT 24.422375 54.041435 21,300 47 450 -2048
2019-10-12 19:39:43 GMT 24.415283 54.032948 21,475 47 451 -2048
2019-10-12 19:39:33 GMT 24.400354 54.015163 21,850 47 455 -2176
2019-10-12 19:39:22 GMT 24.385086 53.996975 22,250 47 458 -2176
2019-10-12 19:39:10 GMT 24.354446 53.960522 22,975 47 464 -2368
2019-10-12 19:39:00 GMT 24.354446 53.960522 23,050 47 466 -2368
2019-10-12 19:38:55 GMT 24.346214 53.950802 23,275 47 468 -2368
2019-10-12 19:38:50 GMT 24.338287 53.941395 23,475 47 469 -2368
2019-10-12 19:38:42 GMT 24.328583 53.929852 23,725 47 470 -2368
2019-10-12 19:38:39 GMT 24.322147 53.922195 23,900 47 472 -2368
2019-10-12 19:38:36 GMT 24.317587 53.916752 24,025 47 473 -2368
2019-10-12 19:38:28 GMT 24.305832 53.902790 24,350 47 477 -2368
2019-10-12 19:38:24 GMT 24.301758 53.897942 24,450 47 477 -2368
2019-10-12 19:38:15 GMT 24.287046 53.880581 24,850 47 479 -2432
2019-10-12 19:38:05 GMT 24.271179 53.861744 25,275 47 482 -2432
2019-10-12 19:38:00 GMT 24.264935 53.854359 25,425 47 491 -2432
2019-10-12 19:37:55 GMT 24.256044 53.843788 25,675 47 484 -2432
2019-10-12 19:37:44 GMT 24.240124 53.824871 26,100 47 486 -2432
2019-10-12 19:37:32 GMT 24.222340 53.803833 27,475 47 491 -2432
2019-10-12 19:37:23 GMT 24.207350 53.786057 26,975 47 490 -2496
2019-10-12 19:37:11 GMT 24.190796 53.766430 27,425 47 491 -2432
2019-10-12 19:37:01 GMT 24.174810 53.747448 27,850 47 493 -2432
2019-10-12 19:36:51 GMT 24.157837 53.727367 28,275 47 494 -2432
2019-10-12 19:36:39 GMT 24.141174 53.707733 28,725 47 496 -2432
2019-10-12 19:36:29 GMT 24.124603 53.688099 29,125 47 498 -2432
2019-10-12 19:36:19 GMT 24.107025 53.667248 29,575 47 500 -2432
2019-10-12 19:36:07 GMT 24.090319 53.647537 30,025 47 500 -2368
2019-10-12 19:35:56 GMT 24.074072 53.628414 30,450 47 495 -2304
2019-10-12 19:35:47 GMT 24.057266 53.608601 30,875 47 491 -2304
2019-10-12 19:35:35 GMT 24.041428 53.589886 31,275 47 489 -2368
2019-10-12 19:35:25 GMT 24.024912 53.570374 31,825 47 492 -2240
2019-10-12 19:35:15 GMT 24.007780 53.550316 32,250 47 493 -2240
2019-10-12 19:35:02 GMT 23.990276 53.529743 32,525 47 494 -2240
2019-10-12 19:34:53 GMT 23.974960 53.511608 32,875 47 496 -2240
2019-10-12 19:34:43 GMT 23.958115 53.491718 33,275 47 497 -2176
2019-10-12 19:34:40 GMT 23.954945 53.487976 33,350 47 498 -2176
2019-10-12 19:34:29 GMT 23.924545 53.452320 34,000 47 500 -2112
2019-10-12 19:34:20 GMT 23.924545 53.452320 34,025 47 500 -2112
2019-10-12 19:34:11 GMT 23.908205 53.433201 34,400 47 500 -2112
2019-10-12 19:33:58 GMT 23.889910 53.411694 34,825 47 500 -2112
2019-10-12 19:33:50 GMT 23.874968 53.394127 35,150 47 497 -1792
2019-10-12 19:33:39 GMT 23.858826 53.375141 35,525 47 496 -1664
2019-10-12 19:33:27 GMT 23.841248 53.354542 35,750 47 493 -1536
2019-10-12 19:33:23 GMT 23.834793 53.346966 35,875 47 493 -1536
2019-10-12 19:33:15 GMT 23.816822 53.325825 36,125 47 492 -1344
2019-10-12 19:33:05 GMT 23.806366 53.313648 36,275 47 491 -1344
2019-10-12 19:33:00 GMT 23.798859 53.304852 36,375 47 491 -1408
2019-10-12 19:32:53 GMT 23.787542 53.291618 36,575 47 490 -1536
2019-10-12 19:32:45 GMT 23.774834 53.276695 36,750 47 491 -1152
2019-10-12 19:32:39 GMT 23.766998 53.267517 36,850 47 491 -1152
2019-10-12 19:32:31 GMT 23.753233 53.251408 36,950 47 491 -448
2019-10-12 19:32:24 GMT 23.742279 53.238628 37,000 47 493 -128
2019-10-12 19:32:19 GMT 23.734753 53.229797 37,000 47 493 -64
2019-10-12 19:32:12 GMT 23.725021 53.218384 37,000 47 493 0
2019-10-12 19:32:03 GMT 23.709892 53.200672 37,000 47 493 0
2019-10-12 19:31:51 GMT 23.691736 53.179424 37,000 47 495 0
2019-10-12 19:31:42 GMT 23.675165 53.160042 37,000 47 495 0
2019-10-12 19:31:30 GMT 23.659103 53.141232 37,000 47 496 0
2019-10-12 19:31:19 GMT 23.640106 53.118999 37,000 47 496 0
2019-10-12 19:31:16 GMT 23.637131 53.115540 37,000 47 495 0
2019-10-12 19:31:08 GMT 23.624144 53.100346 37,000 47 495 0
2019-10-12 19:30:51 GMT 23.597841 53.069614 37,000 47 494 0
2019-10-12 19:30:43 GMT 23.585831 53.055622 37,000 47 494 0
2019-10-12 19:30:33 GMT 23.569244 53.036346 37,000 47 494 0
2019-10-12 19:30:22 GMT 23.551666 53.015850 37,000 47 494 0
2019-10-12 19:30:06 GMT 23.525162 52.985012 37,000 47 493 0
2019-10-12 19:29:59 GMT 23.516098 52.974525 37,000 46 493 0
2019-10-12 19:29:48 GMT 23.498871 52.954456 37,000 47 493 0
2019-10-12 19:29:36 GMT 23.479980 52.932430 37,000 47 493 0
2019-10-12 19:29:24 GMT 23.462631 52.912205 37,000 47 493 0
2019-10-12 19:29:14 GMT 23.444778 52.891430 37,000 46 492 0
2019-10-12 19:29:02 GMT 23.426834 52.870506 37,000 46 492 0
2019-10-12 19:28:52 GMT 23.412518 52.853901 37,000 46 492 0
2019-10-12 19:28:41 GMT 23.395664 52.834320 37,000 47 493 0
2019-10-12 19:28:37 GMT 23.389160 52.826710 37,000 46 492 0
2019-10-12 19:28:22 GMT 23.366226 52.800041 37,000 47 493 0
2019-10-12 19:28:13 GMT 23.349113 52.780102 37,000 47 493 0
2019-10-12 19:28:05 GMT 23.338440 52.767586 37,000 47 493 0
2019-10-12 19:27:57 GMT 23.327042 52.754349 37,000 46 494 0
2019-10-12 19:27:40 GMT 23.300629 52.723339 37,000 46 494 0
2019-10-12 19:27:32 GMT 23.288040 52.707157 37,000 49 495 0
2019-10-12 19:27:29 GMT 23.283428 52.700958 37,000 52 496 0
2019-10-12 19:27:17 GMT 23.267321 52.677967 37,000 54 498 0
2019-10-12 19:27:08 GMT 23.255173 52.659218 37,000 57 499 0
2019-10-12 19:26:55 GMT 23.239344 52.632191 37,000 59 500 0
2019-10-12 19:26:46 GMT 23.228394 52.611328 37,000 60 500 0
2019-10-12 19:26:27 GMT 23.200287 52.555996 37,000 68 505 0
2019-10-12 19:26:20 GMT 23.200287 52.555996 37,000 63 501 0
2019-10-12 19:26:00 GMT 23.171238 52.486828 37,000 68 505 0
2019-10-12 19:25:50 GMT 23.171238 52.486828 37,000 69 507 0
2019-10-12 19:25:40 GMT 23.162764 52.461803 37,000 71 508 -64
2019-10-12 19:25:28 GMT 23.153870 52.432751 37,000 72 508 0
2019-10-12 19:24:57 GMT 23.132599 52.358398 37,000 74 509 0
2019-10-12 19:24:43 GMT 23.123148 52.322643 37,000 74 509 0
2019-10-12 19:24:33 GMT 23.116676 52.297974 37,000 74 509 0
2019-10-12 19:24:11 GMT 23.101776 52.241341 37,000 73 509 0
2019-10-12 19:24:04 GMT 23.097244 52.224209 37,000 73 509 0
2019-10-12 19:23:47 GMT 23.087164 52.186279 37,000 73 509 0
2019-10-12 19:23:36 GMT 23.079895 52.159042 37,000 73 509 0
2019-10-12 19:23:27 GMT 23.074036 52.137043 37,000 73 508 0
2019-10-12 19:23:15 GMT 23.059418 52.082062 37,000 73 508 0
2019-10-12 19:23:05 GMT 23.059418 52.082062 37,000 73 508 0
2019-10-12 19:23:01 GMT 23.056253 52.070160 37,000 73 508 0
2019-10-12 19:22:47 GMT 23.048035 52.039440 37,000 73 507 0
2019-10-12 19:22:37 GMT 23.040939 52.012875 37,000 73 507 0
2019-10-12 19:22:27 GMT 23.034607 51.989086 37,000 73 507 0
2019-10-12 19:22:18 GMT 23.028788 51.967419 37,000 73 507 0
2019-10-12 19:22:15 GMT 23.026878 51.960144 37,000 73 507 0
2019-10-12 19:22:08 GMT 23.021524 51.940205 37,000 73 506 0
2019-10-12 19:21:47 GMT 23.008621 51.891773 37,000 73 506 0
2019-10-12 19:21:37 GMT 23.001984 51.866905 37,000 73 506 0
2019-10-12 19:21:32 GMT 22.999008 51.855717 37,000 73 504 0
2019-10-12 19:21:19 GMT 22.990494 51.823658 37,000 73 504 0
2019-10-12 19:21:10 GMT 22.984468 51.801197 37,000 73 504 0
2019-10-12 19:20:58 GMT 22.976944 51.773022 37,000 73 503 0
2019-10-12 19:20:48 GMT 22.970037 51.747284 37,000 73 502 0
2019-10-12 19:20:39 GMT 22.964218 51.725681 37,000 73 501 0
2019-10-12 19:20:10 GMT 22.945599 51.655987 37,000 73 498 0
2019-10-12 19:20:07 GMT 22.943665 51.648678 37,000 73 498 0
2019-10-12 19:19:57 GMT 22.937256 51.624657 37,000 73 498 0
2019-10-12 19:19:49 GMT 22.931494 51.603191 37,000 73 498 0
2019-10-12 19:19:38 GMT 22.925171 51.579460 37,000 73 499 0
2019-10-12 19:19:23 GMT 22.915741 51.544106 37,000 73 500 0
2019-10-12 19:19:12 GMT 22.908554 51.517090 37,000 74 500 0
2019-10-12 19:18:13 GMT 22.870975 51.375122 37,000 76 501 0
2019-10-12 19:18:07 GMT 22.867764 51.360119 37,000 79 503 0
2019-10-12 19:14:45 GMT 22.884708 50.849712 37,000 94 507 0
2019-10-12 19:14:34 GMT 22.886398 50.823952 37,000 94 507 0
2019-10-12 19:14:16 GMT 22.889456 50.777130 37,000 94 506 0
2019-10-12 19:14:09 GMT 22.890656 50.759182 37,000 94 506 0
2019-10-12 19:14:01 GMT 22.891970 50.739185 37,000 94 506 0
2019-10-12 19:13:46 GMT 22.894484 50.700989 37,000 93 506 0
2019-10-12 19:13:38 GMT 22.895782 50.681129 37,000 93 506 0
2019-10-12 19:13:25 GMT 22.897835 50.649109 37,000 93 506 0
2019-10-12 19:13:17 GMT 22.899092 50.629223 37,000 93 506 0
2019-10-12 19:13:04 GMT 22.901279 50.595093 37,000 93 506 0
2019-10-12 19:12:49 GMT 22.903561 50.558674 37,000 93 506 0
2019-10-12 19:12:46 GMT 22.904167 50.549419 37,000 93 506 0
2019-10-12 19:12:32 GMT 22.906311 50.515686 37,000 93 506 0
2019-10-12 19:12:24 GMT 22.907639 50.494762 37,000 93 506 0
2019-10-12 19:12:09 GMT 22.910078 50.456951 37,000 93 506 0
2019-10-12 19:11:40 GMT 22.914734 50.383556 37,000 93 506 0
2019-10-12 19:11:30 GMT 22.916382 50.357182 37,000 93 505 0
2019-10-12 19:10:21 GMT 22.927162 50.183002 37,000 93 505 0
2019-10-12 19:10:15 GMT 22.928101 50.167820 37,000 93 506 0
2019-10-12 19:08:50 GMT 22.941130 49.954121 37,000 93 507 0
2019-10-12 19:07:54 GMT 22.949615 49.812061 37,000 93 508 0
2019-10-12 19:07:44 GMT 22.951231 49.785053 37,000 93 508 0
2019-10-12 19:07:34 GMT 22.952682 49.760277 37,000 93 508 0
2019-10-12 19:07:12 GMT 22.955978 49.705093 37,000 93 509 0
2019-10-12 19:07:00 GMT 22.957809 49.673885 37,000 93 508 0
2019-10-12 19:06:51 GMT 22.959137 49.651413 37,000 93 508 0
2019-10-12 19:06:36 GMT 22.961332 49.614208 37,000 93 508 0
2019-10-12 19:06:29 GMT 22.962357 49.596661 37,000 93 508 0
2019-10-12 19:06:17 GMT 22.964127 49.566017 37,000 93 508 64
2019-10-12 19:06:07 GMT 22.965662 49.539185 37,000 93 508 0
2019-10-12 19:05:55 GMT 22.967422 49.509140 37,000 93 508 0
2019-10-12 19:05:44 GMT 22.969025 49.482170 37,000 93 507 0
2019-10-12 19:05:34 GMT 22.970551 49.456074 37,000 93 506 0
2019-10-12 19:05:22 GMT 22.972225 49.426422 37,000 93 506 0
2019-10-12 19:05:14 GMT 22.973419 49.405766 37,000 93 506 0
2019-10-12 19:04:58 GMT 22.975718 49.365234 37,000 93 506 0
2019-10-12 19:04:45 GMT 22.977585 49.332359 37,000 93 506 0
2019-10-12 19:04:41 GMT 22.978186 49.321594 37,000 93 506 0
2019-10-12 19:03:50 GMT 22.984982 49.193573 37,000 93 506 0
2019-10-12 19:03:47 GMT 22.985413 49.185390 37,000 93 506 0
2019-10-12 19:03:37 GMT 22.986750 49.158783 37,000 93 506 0
2019-10-12 19:03:19 GMT 22.988937 49.113617 37,000 93 506 0
2019-10-12 19:03:10 GMT 22.990082 49.090210 37,000 93 506 0
2019-10-12 19:02:48 GMT 22.993011 49.034981 37,000 94 506 0
2019-10-12 19:02:32 GMT 22.995920 48.996075 37,000 94 506 0
2019-10-12 19:02:22 GMT 22.998138 48.968811 37,000 94 505 0
2019-10-12 19:02:12 GMT 23.000198 48.943394 37,000 94 505 0
2019-10-12 19:02:01 GMT 23.002438 48.915760 37,000 94 505 0
2019-10-12 19:01:32 GMT 23.008211 48.844349 37,000 94 505 0
2019-10-12 19:01:28 GMT 23.009171 48.832531 37,000 94 505 0
2019-10-12 19:01:16 GMT 23.011562 48.802490 37,000 94 505 0
2019-10-12 19:01:05 GMT 23.013798 48.775127 37,000 94 505 0
2019-10-12 19:00:53 GMT 23.016218 48.745167 37,000 94 504 0
2019-10-12 19:00:45 GMT 23.017754 48.725994 37,000 94 504 0
2019-10-12 19:00:34 GMT 23.020065 48.697098 37,000 94 503 0
2019-10-12 19:00:24 GMT 23.022079 48.671581 37,000 94 503 0
2019-10-12 19:00:12 GMT 23.024504 48.641254 37,000 94 502 0
2019-10-12 19:00:03 GMT 23.028580 48.589931 37,000 94 502 0
2019-10-12 18:59:51 GMT 23.028580 48.589931 37,000 94 501 0
2019-10-12 18:59:41 GMT 23.030556 48.564960 37,000 94 502 0
2019-10-12 18:59:31 GMT 23.032652 48.538105 37,000 94 501 0
2019-10-12 18:59:21 GMT 23.034531 48.514278 37,000 94 501 0
2019-10-12 18:59:11 GMT 23.036591 48.488159 37,000 94 501 0
2019-10-12 18:58:59 GMT 23.038971 48.457897 37,000 94 501 0
2019-10-12 18:58:47 GMT 23.041122 48.430176 37,000 94 501 0
2019-10-12 18:58:38 GMT 23.043077 48.405354 37,000 94 500 0
2019-10-12 18:58:28 GMT 23.044922 48.381393 37,000 94 500 0
2019-10-12 18:58:15 GMT 23.047440 48.349831 37,000 94 500 0
2019-10-12 18:58:10 GMT 23.048477 48.335926 37,000 94 500 0
2019-10-12 18:58:04 GMT 23.049545 48.322067 37,000 94 500 0
2019-10-12 18:58:00 GMT 23.050461 48.310680 37,000 94 500 0
2019-10-12 18:57:54 GMT 23.051504 48.297070 37,000 94 500 0
2019-10-12 18:57:50 GMT 23.052528 48.283691 37,000 94 500 0
2019-10-12 18:57:44 GMT 23.053553 48.270519 37,000 94 500 0
2019-10-12 18:57:39 GMT 23.054529 48.257854 37,000 94 500 0
2019-10-12 18:57:33 GMT 23.055649 48.243305 37,000 94 500 0
2019-10-12 18:57:29 GMT 23.056580 48.230999 37,000 94 500 0
2019-10-12 18:57:22 GMT 23.057695 48.216656 37,000 94 500 0
2019-10-12 18:57:12 GMT 23.059605 48.191376 37,000 94 500 0
2019-10-12 18:57:08 GMT 23.060722 48.176830 37,000 94 499 0
2019-10-12 18:57:01 GMT 23.061792 48.163097 37,000 94 499 0
2019-10-12 18:56:51 GMT 23.063599 48.139294 37,000 94 499 0
2019-10-12 18:56:40 GMT 23.065659 48.112076 37,000 94 499 0
2019-10-12 18:56:29 GMT 23.067751 48.084972 37,000 94 499 0
2019-10-12 18:56:19 GMT 23.069687 48.058743 37,000 94 499 0
2019-10-12 18:56:07 GMT 23.071987 48.028259 37,000 94 499 0
2019-10-12 18:55:57 GMT 23.073715 48.005310 37,000 94 498 0
2019-10-12 18:55:47 GMT 23.077881 47.950428 37,000 94 498 0
2019-10-12 18:55:35 GMT 23.077881 47.950428 37,000 94 498 0
2019-10-12 18:55:25 GMT 23.079855 47.924244 37,000 94 498 0
2019-10-12 18:55:14 GMT 23.081772 47.898392 37,000 94 498 0
2019-10-12 18:55:04 GMT 23.083813 47.871296 37,000 94 498 0
2019-10-12 18:54:53 GMT 23.085720 47.846069 37,000 94 499 0
2019-10-12 18:54:42 GMT 23.087723 47.818707 37,000 94 498 0
2019-10-12 18:54:32 GMT 23.089724 47.791851 37,000 94 498 0
2019-10-12 18:54:21 GMT 23.091660 47.765308 37,000 94 499 0
2019-10-12 18:54:11 GMT 23.093588 47.739410 37,000 94 499 0
2019-10-12 18:54:00 GMT 23.095551 47.712826 37,000 94 498 0
2019-10-12 18:53:48 GMT 23.097637 47.684174 37,000 94 498 0
2019-10-12 18:53:39 GMT 23.099350 47.661087 37,000 94 499 0
2019-10-12 18:53:28 GMT 23.101269 47.634327 37,000 94 499 0
2019-10-12 18:53:18 GMT 23.103149 47.608654 37,000 94 499 0
2019-10-12 18:53:07 GMT 23.105118 47.581589 37,000 94 499 0
2019-10-12 18:52:56 GMT 23.107134 47.553913 37,000 94 499 0
2019-10-12 18:52:46 GMT 23.108950 47.529194 37,000 94 499 0
2019-10-12 18:52:35 GMT 23.110886 47.501839 37,000 94 499 0
2019-10-12 18:52:25 GMT 23.112720 47.476654 37,000 94 499 0
2019-10-12 18:52:15 GMT 23.114491 47.452087 37,000 94 499 0
2019-10-12 18:52:03 GMT 23.116676 47.421417 37,000 94 499 0
2019-10-12 18:51:51 GMT 23.118912 47.389935 37,000 94 499 0
2019-10-12 18:51:39 GMT 23.120956 47.361214 37,000 94 499 0
2019-10-12 18:51:30 GMT 23.122467 47.339588 37,000 94 499 0
2019-10-12 18:51:19 GMT 23.124481 47.311123 37,000 94 499 0
2019-10-12 18:51:08 GMT 23.126453 47.283630 37,000 94 499 0
2019-10-12 18:50:56 GMT 23.128595 47.254589 37,000 94 499 0
2019-10-12 18:50:46 GMT 23.130524 47.227879 37,000 94 498 0
2019-10-12 18:50:40 GMT 23.131622 47.211845 37,000 94 498 0
2019-10-12 18:50:34 GMT 23.132505 47.199554 37,000 94 498 0
2019-10-12 18:50:23 GMT 23.134506 47.171398 37,000 94 498 0
2019-10-12 18:50:12 GMT 23.136461 47.143147 37,000 94 498 0
2019-10-12 18:50:00 GMT 23.138443 47.115170 37,000 94 498 0
2019-10-12 18:49:52 GMT 23.139954 47.093445 37,000 94 498 0
2019-10-12 18:49:49 GMT 23.140467 47.086132 37,000 94 498 0
2019-10-12 18:49:43 GMT 23.141647 47.068527 37,000 94 498 0
2019-10-12 18:49:38 GMT 23.142288 47.059387 37,000 94 498 0
2019-10-12 18:49:33 GMT 23.143433 47.043056 37,000 94 498 0
2019-10-12 18:49:27 GMT 23.144190 47.032318 37,000 94 498 0
2019-10-12 18:49:22 GMT 23.145126 47.018238 37,000 94 498 0
2019-10-12 18:49:16 GMT 23.146006 47.005665 37,000 94 498 0
2019-10-12 18:49:05 GMT 23.147964 46.977287 37,000 94 498 0
2019-10-12 18:49:01 GMT 23.148972 46.962406 37,000 94 498 0
2019-10-12 18:48:55 GMT 23.149776 46.951141 37,000 94 498 0
2019-10-12 18:48:50 GMT 23.150707 46.937561 37,000 94 498 0
2019-10-12 18:48:44 GMT 23.151592 46.924847 37,000 94 498 0
2019-10-12 18:48:33 GMT 23.153547 46.896412 37,000 94 498 0
2019-10-12 18:48:25 GMT 23.155130 46.873474 37,000 94 498 0
2019-10-12 18:48:20 GMT 23.155781 46.863403 37,000 94 498 0
2019-10-12 18:48:12 GMT 23.157038 46.845348 37,000 94 498 0
2019-10-12 18:48:01 GMT 23.158905 46.817940 37,000 94 498 0
2019-10-12 18:47:49 GMT 23.160873 46.788025 37,000 94 498 0
2019-10-12 18:47:41 GMT 23.162338 46.766453 37,000 94 499 0
2019-10-12 18:47:30 GMT 23.164124 46.739635 37,000 94 499 0
2019-10-12 18:47:20 GMT 23.165836 46.714325 37,000 94 499 0
2019-10-12 18:47:09 GMT 23.167652 46.687519 37,000 94 499 0
2019-10-12 18:46:58 GMT 23.169388 46.661182 37,000 94 498 0
2019-10-12 18:46:52 GMT 23.170441 46.645702 37,000 94 498 0
2019-10-12 18:46:47 GMT 23.171356 46.632069 37,000 94 498 0
2019-10-12 18:46:35 GMT 23.173279 46.603855 37,000 94 498 0
2019-10-12 18:46:24 GMT 23.175201 46.574741 37,000 94 498 0
2019-10-12 18:46:13 GMT 23.177032 46.547623 37,000 94 498 0
2019-10-12 18:46:01 GMT 23.179001 46.517960 37,000 94 497 0
2019-10-12 18:45:50 GMT 23.180826 46.490070 37,000 94 497 0
2019-10-12 18:45:43 GMT 23.182131 46.470081 37,000 94 497 0
2019-10-12 18:45:39 GMT 23.182549 46.463421 37,000 94 497 0
2019-10-12 18:45:28 GMT 23.184311 46.436512 37,000 94 497 0
2019-10-12 18:45:17 GMT 23.186142 46.408546 37,000 94 497 0
2019-10-12 18:45:06 GMT 23.187836 46.382481 37,000 94 497 0
2019-10-12 18:44:54 GMT 23.189812 46.352184 37,000 93 497 0
2019-10-12 18:44:49 GMT 23.190788 46.336517 37,000 94 497 0
2019-10-12 18:44:44 GMT 23.191452 46.326599 37,000 94 497 0
2019-10-12 18:44:41 GMT 23.192045 46.317036 37,000 94 497 0
2019-10-12 18:44:33 GMT 23.193146 46.300430 37,000 94 497 0
2019-10-12 18:44:27 GMT 23.194281 46.282501 37,000 93 497 0
2019-10-12 18:44:23 GMT 23.194794 46.274864 37,000 93 497 0
2019-10-12 18:44:18 GMT 23.195583 46.262054 37,000 93 497 0
2019-10-12 18:44:12 GMT 23.196579 46.246349 37,000 94 497 0
2019-10-12 18:44:01 GMT 23.198364 46.219582 37,000 94 497 0
2019-10-12 18:43:50 GMT 23.200052 46.192474 37,000 93 497 0
2019-10-12 18:43:43 GMT 23.201202 46.174389 37,000 93 498 0
2019-10-12 18:43:40 GMT 23.201706 46.166496 37,000 93 498 0
2019-10-12 18:43:29 GMT 23.203400 46.140633 37,000 93 498 0
2019-10-12 18:43:18 GMT 23.206924 46.085350 37,000 93 498 0
2019-10-12 18:43:07 GMT 23.206924 46.085350 37,000 93 497 0
2019-10-12 18:42:57 GMT 23.208479 46.060284 37,000 93 498 0
2019-10-12 18:42:46 GMT 23.210154 46.034191 37,000 93 498 0
2019-10-12 18:42:36 GMT 23.211830 46.007130 37,000 93 498 0
2019-10-12 18:42:24 GMT 23.213552 45.978954 37,000 93 498 0
2019-10-12 18:42:13 GMT 23.215302 45.950466 37,000 93 498 0
2019-10-12 18:42:04 GMT 23.216764 45.927429 37,000 93 498 0
2019-10-12 18:41:53 GMT 23.218460 45.899929 37,000 93 498 0
2019-10-12 18:41:42 GMT 23.220154 45.872715 37,000 93 498 0
2019-10-12 18:41:31 GMT 23.221746 45.847321 37,000 93 499 0
2019-10-12 18:41:21 GMT 23.223404 45.820377 37,000 93 499 0
2019-10-12 18:41:10 GMT 23.224958 45.794476 37,000 93 499 0
2019-10-12 18:41:00 GMT 23.226562 45.768044 37,000 93 499 0
2019-10-12 18:40:49 GMT 23.228165 45.741577 37,000 93 498 0
2019-10-12 18:40:38 GMT 23.229858 45.713913 37,000 93 498 0
2019-10-12 18:40:28 GMT 23.231382 45.689137 37,000 93 498 0
2019-10-12 18:40:17 GMT 23.233011 45.662079 37,000 93 499 0
2019-10-12 18:40:07 GMT 23.234640 45.635681 37,000 93 499 0
2019-10-12 18:39:56 GMT 23.236223 45.609234 37,000 93 499 0
2019-10-12 18:39:45 GMT 23.237900 45.581970 37,000 93 499 0
2019-10-12 18:39:35 GMT 23.239483 45.556538 37,000 93 499 0
2019-10-12 18:39:25 GMT 23.241018 45.530598 37,000 93 499 0
2019-10-12 18:39:14 GMT 23.242676 45.503624 37,000 93 499 0
2019-10-12 18:39:03 GMT 23.244232 45.476906 37,000 93 498 0
2019-10-12 18:38:53 GMT 23.245697 45.450588 37,000 93 498 0
2019-10-12 18:38:42 GMT 23.247162 45.425022 37,000 93 499 0
2019-10-12 18:38:32 GMT 23.248672 45.398354 37,000 92 498 0
2019-10-12 18:38:21 GMT 23.249352 45.371655 37,000 90 499 0
2019-10-12 18:38:10 GMT 23.248947 45.344772 37,000 87 498 0
2019-10-12 18:38:00 GMT 23.247528 45.318954 37,000 84 499 0
2019-10-12 18:37:49 GMT 23.244873 45.291786 37,000 81 498 0
2019-10-12 18:37:38 GMT 23.241064 45.265045 37,000 80 498 0
2019-10-12 18:37:27 GMT 23.237156 45.238495 37,000 80 498 0
2019-10-12 18:37:17 GMT 23.233431 45.213520 37,000 80 498 0
2019-10-12 18:37:07 GMT 23.229630 45.187717 37,000 80 498 0
2019-10-12 18:36:56 GMT 23.225693 45.161350 37,000 80 497 0
2019-10-12 18:36:46 GMT 23.221848 45.135384 37,000 80 497 0
2019-10-12 18:36:35 GMT 23.217976 45.109509 37,000 80 497 0
2019-10-12 18:36:25 GMT 23.214205 45.083923 37,000 80 496 0
2019-10-12 18:36:14 GMT 23.210201 45.057220 37,000 80 496 0
2019-10-12 18:36:03 GMT 23.206291 45.031433 37,000 80 496 0
2019-10-12 18:35:53 GMT 23.202576 45.006592 37,000 80 496 0
2019-10-12 18:35:43 GMT 23.198776 44.981224 37,000 80 496 0
2019-10-12 18:35:31 GMT 23.194336 44.951759 37,000 80 496 0
2019-10-12 18:35:22 GMT 23.190857 44.928787 37,000 80 496 0
2019-10-12 18:35:11 GMT 23.187012 44.903370 37,000 80 496 0
2019-10-12 18:35:00 GMT 23.182846 44.875904 37,000 80 496 0
2019-10-12 18:34:50 GMT 23.178965 44.850159 37,000 80 496 0
2019-10-12 18:34:39 GMT 23.175007 44.824219 37,000 80 496 0
2019-10-12 18:34:30 GMT 23.171469 44.800823 37,000 80 496 0
2019-10-12 18:34:19 GMT 23.167465 44.774429 37,000 80 496 0
2019-10-12 18:34:08 GMT 23.163437 44.748013 37,000 80 497 0
2019-10-12 18:33:58 GMT 23.159546 44.722347 37,000 80 497 0
2019-10-12 18:33:47 GMT 23.155701 44.696976 37,000 80 497 0
2019-10-12 18:33:37 GMT 23.151918 44.672039 37,000 80 497 0
2019-10-12 18:33:27 GMT 23.148010 44.646488 37,000 80 498 0
2019-10-12 18:33:16 GMT 23.144005 44.620007 37,000 80 498 0
2019-10-12 18:33:05 GMT 23.139771 44.592358 37,000 80 498 0
2019-10-12 18:32:55 GMT 23.136063 44.568188 37,000 80 499 0
2019-10-12 18:32:43 GMT 23.131439 44.538025 37,000 80 499 0
2019-10-12 18:32:34 GMT 23.127897 44.515076 37,000 80 499 0
2019-10-12 18:32:23 GMT 23.124079 44.490002 37,000 80 498 0
2019-10-12 18:32:13 GMT 23.120075 44.464062 37,000 80 498 0
2019-10-12 18:32:03 GMT 23.116241 44.439148 37,000 80 498 0
2019-10-12 18:31:52 GMT 23.112076 44.412182 37,000 80 498 0
2019-10-12 18:31:41 GMT 23.108139 44.386463 37,000 80 497 0
2019-10-12 18:31:31 GMT 23.104111 44.360294 37,000 80 497 0
2019-10-12 18:31:20 GMT 23.100174 44.334778 37,000 80 496 0
2019-10-12 18:31:09 GMT 23.095915 44.307098 37,000 80 496 0
2019-10-12 18:31:00 GMT 23.092377 44.284466 37,000 80 496 0
2019-10-12 18:30:49 GMT 23.088318 44.258324 37,000 80 496 0
2019-10-12 18:30:39 GMT 23.084381 44.233154 37,000 80 496 0
2019-10-12 18:30:28 GMT 23.080261 44.206688 37,000 80 495 0
2019-10-12 18:30:18 GMT 23.076363 44.181774 37,000 80 495 0
2019-10-12 18:30:07 GMT 23.072205 44.155003 37,000 80 495 0
2019-10-12 18:29:56 GMT 23.067902 44.127537 37,000 80 495 0
2019-10-12 18:29:46 GMT 23.063980 44.102325 37,000 80 495 0
2019-10-12 18:29:33 GMT 23.059067 44.070908 37,000 80 495 0
2019-10-12 18:28:59 GMT 23.046059 43.987530 37,000 80 495 0
We lost coverage of the aircraft here for a total of 73 minutes
2019-10-12 17:15:58 GMT 17.591171 35.562069 37,000 41 505 0
2019-10-12 17:15:51 GMT 17.577194 35.549305 37,000 41 505 0
2019-10-12 17:15:45 GMT 17.568674 35.541508 37,000 41 505 0
2019-10-12 17:15:32 GMT 17.546127 35.520870 37,000 41 505 0
2019-10-12 17:15:21 GMT 17.527149 35.503544 37,000 41 505 0
2019-10-12 17:13:39 GMT 17.344711 35.337044 37,000 41 505 64
2019-10-12 17:13:27 GMT 17.326263 35.320274 36,975 41 506 64
2019-10-12 17:13:17 GMT 17.306900 35.302589 37,000 41 506 -64
2019-10-12 17:12:45 GMT 17.250916 35.251560 37,000 41 506 0
2019-10-12 17:12:29 GMT 17.223211 35.226387 37,000 41 506 0
2019-10-12 17:12:23 GMT 17.212458 35.216576 37,000 41 506 64
2019-10-12 17:12:14 GMT 17.196716 35.202267 37,000 41 506 0
2019-10-12 17:12:03 GMT 17.176895 35.184246 37,000 41 506 0
2019-10-12 17:11:50 GMT 17.153229 35.162754 37,000 41 506 0
2019-10-12 17:11:41 GMT 17.138855 35.149746 37,000 41 506 0
2019-10-12 17:11:26 GMT 17.110415 35.123878 37,000 41 507 0
2019-10-12 17:11:20 GMT 17.099991 35.114376 37,000 41 508 0
2019-10-12 17:11:08 GMT 17.080156 35.096413 37,000 41 508 -64
2019-10-12 17:10:51 GMT 17.048965 35.068115 37,000 41 507 0
2019-10-12 17:10:47 GMT 17.040586 35.060513 37,000 41 506 0
2019-10-12 17:10:35 GMT 17.021484 35.043159 37,000 41 506 0
2019-10-12 17:09:58 GMT 16.956528 34.984276 37,000 41 505 0
2019-10-12 17:09:53 GMT 16.945496 34.974255 37,000 40 506 0
2019-10-12 17:08:49 GMT 16.832638 34.872173 37,000 41 508 0
2019-10-12 17:08:04 GMT 16.749481 34.796928 37,000 41 508 64
2019-10-12 17:07:58 GMT 16.744125 34.792110 37,000 41 508 0
2019-10-12 17:07:48 GMT 16.726639 34.776356 37,000 41 508 64
2019-10-12 17:07:39 GMT 16.708715 34.760204 37,000 40 508 0
2019-10-12 17:07:19 GMT 16.671194 34.726360 37,000 41 507 0
2019-10-12 17:07:15 GMT 16.667517 34.723026 37,000 41 508 -64
2019-10-12 17:07:05 GMT 16.648407 34.705666 37,000 41 507 0
2019-10-12 17:06:55 GMT 16.628227 34.687466 37,000 40 508 0
2019-10-12 17:06:42 GMT 16.608627 34.669811 37,000 40 508 0
2019-10-12 17:06:32 GMT 16.590546 34.653530 37,000 41 507 0
2019-10-12 17:06:22 GMT 16.570456 34.635429 37,000 40 506 0
2019-10-12 17:06:10 GMT 16.551361 34.618305 37,000 40 506 0
2019-10-12 17:06:01 GMT 16.533865 34.602570 37,000 40 506 0
2019-10-12 17:05:49 GMT 16.510868 34.581821 37,000 40 505 64
2019-10-12 17:05:36 GMT 16.491270 34.564213 37,000 40 504 0
2019-10-12 17:05:27 GMT 16.468369 34.543568 37,000 41 504 0
2019-10-12 17:05:12 GMT 16.446304 34.523571 37,000 41 502 0
2019-10-12 17:05:02 GMT 16.428984 34.507957 37,000 41 501 0
2019-10-12 17:04:51 GMT 16.411377 34.492153 37,000 40 500 64
2019-10-12 17:04:41 GMT 16.392105 34.474808 37,000 40 500 64
2019-10-12 17:04:30 GMT 16.374847 34.459293 37,000 40 501 0
2019-10-12 17:04:20 GMT 16.353289 34.439934 37,000 41 502 64
2019-10-12 17:04:08 GMT 16.336298 34.424629 37,000 40 504 0
2019-10-12 17:03:57 GMT 16.317396 34.407707 37,000 40 504 0
2019-10-12 17:03:48 GMT 16.299454 34.391689 37,000 40 505 0
2019-10-12 17:03:36 GMT 16.279690 34.373966 37,000 40 505 0
2019-10-12 17:03:27 GMT 16.261721 34.357876 37,000 40 505 64
2019-10-12 17:03:16 GMT 16.242142 34.340370 37,000 40 505 64
2019-10-12 17:03:05 GMT 16.221268 34.321583 37,000 40 506 0
2019-10-12 17:02:54 GMT 16.204514 34.306496 37,000 41 506 0
2019-10-12 17:02:44 GMT 16.185379 34.289246 37,000 40 504 0
2019-10-12 17:02:33 GMT 16.167984 34.273537 37,000 43 504 -64
2019-10-12 17:02:23 GMT 16.149809 34.254978 37,000 47 504 -64
2019-10-12 17:02:12 GMT 16.133144 34.235264 37,025 51 504 -64
2019-10-12 17:02:02 GMT 16.118591 34.215473 37,000 55 506 192
2019-10-12 17:01:51 GMT 16.105453 34.194851 36,925 58 508 768
2019-10-12 17:01:40 GMT 16.092690 34.171356 36,700 63 508 1600
2019-10-12 17:01:30 GMT 16.082495 34.149872 36,425 64 509 1664
2019-10-12 17:01:19 GMT 16.070578 34.124271 36,100 64 510 1536
2019-10-12 17:01:10 GMT 16.060942 34.103523 35,875 64 510 1664
2019-10-12 17:00:58 GMT 16.049675 34.079590 35,550 64 511 1792
2019-10-12 17:00:49 GMT 16.039202 34.057323 35,250 64 512 1792
2019-10-12 17:00:37 GMT 16.027702 34.032848 34,925 64 514 1792
2019-10-12 17:00:27 GMT 16.017426 34.010780 34,625 64 514 1728
2019-10-12 17:00:16 GMT 16.006622 33.987457 34,350 64 514 1728
2019-10-12 17:00:07 GMT 15.995728 33.963993 34,025 64 514 1856
2019-10-12 16:59:56 GMT 15.984787 33.940285 33,700 64 515 1856
2019-10-12 16:59:44 GMT 15.973516 33.915775 33,375 64 515 1664
2019-10-12 16:59:34 GMT 15.963461 33.893803 33,100 64 515 1600
2019-10-12 16:59:24 GMT 15.952972 33.870800 32,800 64 514 1920
2019-10-12 16:59:13 GMT 15.941907 33.846718 32,425 64 515 2240
2019-10-12 16:59:04 GMT 15.930634 33.822807 32,000 63 517 2432
2019-10-12 16:58:53 GMT 15.919235 33.800209 31,575 61 519 2496
2019-10-12 16:58:43 GMT 15.906693 33.777031 31,150 61 521 2496
2019-10-12 16:58:31 GMT 15.894562 33.753326 30,725 64 523 2304
2019-10-12 16:58:22 GMT 15.884583 33.730339 30,400 67 523 1664
2019-10-12 16:58:09 GMT 15.874313 33.704094 30,100 68 521 1600
2019-10-12 16:58:01 GMT 15.865468 33.681236 29,825 68 518 1664
2019-10-12 16:57:50 GMT 15.856613 33.658398 29,525 68 516 1792
2019-10-12 16:57:40 GMT 15.846708 33.633076 29,225 67 514 1600
2019-10-12 16:57:29 GMT 15.837616 33.609734 28,950 67 512 1792
2019-10-12 16:57:18 GMT 15.827957 33.584965 28,575 68 509 1856
2019-10-12 16:57:09 GMT 15.819242 33.562496 28,275 68 507 1728
2019-10-12 16:56:57 GMT 15.810164 33.538807 27,975 68 505 1856
2019-10-12 16:56:47 GMT 15.800766 33.513844 27,650 68 502 1664
2019-10-12 16:56:36 GMT 15.791107 33.488880 27,325 67 499 1792
2019-10-12 16:56:26 GMT 15.781767 33.465042 27,000 68 497 1792
2019-10-12 16:56:14 GMT 15.773026 33.442383 26,700 68 496 2112
2019-10-12 16:56:05 GMT 15.764420 33.420170 26,300 67 495 2368
2019-10-12 16:55:53 GMT 15.754720 33.396427 25,950 66 492 1536
2019-10-12 16:55:43 GMT 15.745377 33.375164 25,725 64 487 1088
2019-10-12 16:55:32 GMT 15.734563 33.352139 25,525 63 482 1280
2019-10-12 16:55:23 GMT 15.725006 33.332855 25,250 62 478 1856
2019-10-12 16:55:13 GMT 15.713562 33.309872 24,850 62 478 2560
2019-10-12 16:55:02 GMT 15.703373 33.289604 24,400 62 478 2752
2019-10-12 16:54:52 GMT 15.692917 33.268818 24,000 62 476 1600
2019-10-12 16:54:41 GMT 15.682006 33.247032 23,775 62 470 1408
2019-10-12 16:54:30 GMT 15.671764 33.226288 23,500 62 466 1920
2019-10-12 16:54:21 GMT 15.661652 33.205887 23,150 62 463 2112
2019-10-12 16:54:09 GMT 15.651188 33.184746 22,725 62 461 2496
2019-10-12 16:54:00 GMT 15.640993 33.164143 22,300 62 460 2368
2019-10-12 16:53:49 GMT 15.631622 33.145126 21,900 63 457 2368
2019-10-12 16:53:38 GMT 15.620603 33.122849 21,475 62 454 2240
2019-10-12 16:53:27 GMT 15.610931 33.103443 21,100 62 451 2240
2019-10-12 16:53:17 GMT 15.600353 33.082531 20,675 62 448 2432
2019-10-12 16:53:08 GMT 15.590881 33.064175 20,225 61 446 2752
2019-10-12 16:52:56 GMT 15.580150 33.043491 19,700 62 444 2816
2019-10-12 16:52:47 GMT 15.570190 33.023651 19,250 63 442 2560
2019-10-12 16:52:35 GMT 15.561035 33.003941 18,800 65 439 2496
2019-10-12 16:52:26 GMT 15.552497 32.983704 18,375 66 435 2368
2019-10-12 16:52:14 GMT 15.543792 32.963203 17,950 66 431 2304
2019-10-12 16:52:05 GMT 15.536018 32.944759 17,550 66 427 2688
2019-10-12 16:51:53 GMT 15.527756 32.924194 17,075 68 423 2560
2019-10-12 16:51:43 GMT 15.520706 32.904243 16,625 71 419 2560
2019-10-12 16:51:33 GMT 15.514572 32.885406 16,175 71 416 2688
2019-10-12 16:51:22 GMT 15.508026 32.864925 15,675 71 412 2752
2019-10-12 16:51:12 GMT 15.501617 32.845123 15,200 71 407 2688
2019-10-12 16:51:02 GMT 15.495850 32.827484 14,750 71 403 2880
2019-10-12 16:50:52 GMT 15.489047 32.807091 14,200 70 401 3200
2019-10-12 16:50:40 GMT 15.482300 32.786865 13,600 71 397 3136
2019-10-12 16:50:29 GMT 15.475919 32.767361 13,125 71 392 2496
2019-10-12 16:50:18 GMT 15.469940 32.748703 12,775 71 382 1600
2019-10-12 16:50:09 GMT 15.464467 32.731461 12,525 71 371 1600
2019-10-12 16:49:58 GMT 15.458679 32.714153 12,275 69 359 1600
2019-10-12 16:49:48 GMT 15.451572 32.697178 12,025 60 344 1024
2019-10-12 16:49:37 GMT 15.442932 32.683556 11,925 53 326 640
2019-10-12 16:49:27 GMT 15.433044 32.670158 11,775 52 307 768
2019-10-12 16:49:15 GMT 15.424347 32.658642 11,500 51 296 2688
2019-10-12 16:49:06 GMT 15.415421 32.647079 10,975 52 291 3008
2019-10-12 16:48:54 GMT 15.406403 32.634453 10,325 58 289 3840
2019-10-12 16:48:45 GMT 15.400360 32.622215 9,675 73 289 4288
2019-10-12 16:48:34 GMT 15.397665 32.605263 8,875 92 291 3648
2019-10-12 16:48:22 GMT 15.399490 32.591038 8,225 106 294 3392
2019-10-12 16:48:12 GMT 15.404741 32.577747 7,750 121 291 2432
2019-10-12 16:48:00 GMT 15.415329 32.564537 7,250 141 283 2560
2019-10-12 16:47:50 GMT 15.426270 32.557163 6,700 157 282 3712
2019-10-12 16:47:38 GMT 15.440260 32.552784 5,975 173 287 3904
2019-10-12 16:47:29 GMT 15.453714 32.552097 5,425 182 286 3200
2019-10-12 16:47:17 GMT 15.466873 32.552586 4,850 183 284 3904
2019-10-12 16:47:07 GMT 15.480560 32.553020 4,250 182 283 2624
2019-10-12 16:46:57 GMT 15.493888 32.553421 3,950 182 270 1472
2019-10-12 16:46:46 GMT 15.507111 32.553791 3,725 182 255 832
2019-10-12 16:46:35 GMT 15.520097 32.554062 3,625 181 234 576
2019-10-12 16:46:26 GMT 15.530914 32.554131 3,450 180 221 1088
2019-10-12 16:46:14 GMT 15.541139 32.554108 3,175 179 209 1984
2019-10-12 16:46:05 GMT 15.550496 32.553963 2,775 178 203 2560
2019-10-12 16:45:55 GMT 15.560394 32.553646 2,350 178 193 2624
2019-10-12 16:45:44 GMT 15.569908 32.553421 1,900 178 188 2304
2019-10-12 16:45:34 GMT 15.579125 32.553276 1,500 179 181 1984
2019-10-12 16:45:19 GMT 15.589371 32.553165 1,425 179 137 0
2019-10-12 16:45:11 GMT 15.594360 32.553127 0 180 86
2019-10-12 16:45:01 GMT 15.597479 32.553089 0 180 35
2019-10-12 16:44:47 GMT 15.598526 32.553093 0 177 7
2019-10-12 16:44:39 GMT 15.598755 32.553127 0 157 6
2019-10-12 16:44:18 GMT 15.599166 32.552906 0 56 7
2019-10-12 16:44:09 GMT 15.598957 32.552624 0 47 9
2019-10-12 16:43:58 GMT 15.598712 32.552368 0 59 7
2019-10-12 16:43:47 GMT 15.598515 32.552139 0 90 6
2019-10-12 16:43:37 GMT 15.598446 32.551926 0 129 4
2019-10-12 16:40:29 GMT 15.598712 32.551632 0 149 4
2019-10-12 16:40:18 GMT 15.598898 32.551510 0 154 5
2019-10-12 16:40:14 GMT 15.598968 32.551460 0 160 5
2019-10-12 16:40:05 GMT 15.599178 32.551361 0 165 6
2019-10-12 16:39:55 GMT 15.599410 32.551300 0 168 4
2019-10-12 16:39:44 GMT 15.599562 32.551266 0 168 3
2019-10-12 16:39:32 GMT 15.599659 32.551250 0 168 0
2019-10-12 16:39:01 GMT 15.599670 32.551235 0 168 0
2019-10-12 16:38:41 GMT 15.599678 32.551239 0 168 0
2019-10-12 16:38:31 GMT 15.599670 32.551235 0 168 0
2019-10-12 16:37:47 GMT 15.599678 32.551239 0 168 0
2019-10-12 16:37:38 GMT 15.599670 32.551235 0 168 0
2019-10-12 16:37:27 GMT 15.599678 32.551239 0 168 0
2019-10-12 16:37:17 GMT 15.599670 32.551235 0 168 0
2019-10-12 16:36:57 GMT 15.599678 32.551239 0 168 0
2019-10-12 16:36:23 GMT 15.599670 32.551235 0 168 0
2019-10-12 16:36:12 GMT 15.599682 32.551235 0 168 0
2019-10-12 16:36:05 GMT 15.599670 32.551235 0 168 0
2019-10-12 16:35:55 GMT 15.599678 32.551239 0 168 0
2019-10-12 16:35:45 GMT 15.599655 32.551239 0 168 2
2019-10-12 16:35:35 GMT 15.599545 32.551250 0 171 3

Making use of Plane Finder data

You are free to use the raw flight data, aircraft information and images provided in this report for your own purposes provided the data is correctly attributed to Plane Finder. We ask that you please credit Plane Finder and link to planefinder.net in close proximity to the content.

Optionally one of the following logos (no smaller then 150x24px) can be used and must link to planefinder.net

Embedding the Plane Finder map

You are welcome to embed the Plane Finder playback map on your website to offer visitors a more interactive experience. We suggest using the following HTML code:

<iframe src="//planefinder.net/data/report/EK734-A6-EPF-7700-squawk-2019-10-12/map" width="800" height="600" seamless="seamless"></iframe>

Where our data comes from

Plane Finder has a global network of data feeds and antenna radars that receive data broadcast directly from aircraft. The primary technologies used are ADS-B and MLAT. We also show feeds from the FAA and a FLARM glider feed.

Click here to find out more about the Plane Finder network.

How we collect our data